METAR Data
IDs: Format: Raw Decoded Include TAF

Data at: 2227 UTC 01 Dec 2021

EDHL 012220Z AUTO 27020G34KT 240V300 1500 1100 R25/1500U // FEW004/// SCT010/// 00/M00 Q0981